sensor_id;sensor_type;location;lat;lon;timestamp;P1;durP1;ratioP1;P2;durP2;ratioP2
15482;SDS011;7843;50.330;7.312;2022-09-24T00:01:24;9.68;;;3.50;;
15482;SDS011;7843;50.330;7.312;2022-09-24T00:03:54;6.10;;;3.40;;
15482;SDS011;7843;50.330;7.312;2022-09-24T00:06:22;5.72;;;3.17;;
15482;SDS011;7843;50.330;7.312;2022-09-24T00:08:50;4.43;;;3.33;;
15482;SDS011;7843;50.330;7.312;2022-09-24T00:11:20;4.67;;;2.80;;
15482;SDS011;7843;50.330;7.312;2022-09-24T00:13:48;6.68;;;2.97;;
15482;SDS011;7843;50.330;7.312;2022-09-24T00:16:17;6.20;;;3.15;;
15482;SDS011;7843;50.330;7.312;2022-09-24T00:18:45;9.75;;;3.15;;
15482;SDS011;7843;50.330;7.312;2022-09-24T00:21:17;5.72;;;3.20;;
15482;SDS011;7843;50.330;7.312;2022-09-24T00:23:53;7.05;;;3.00;;
15482;SDS011;7843;50.330;7.312;2022-09-24T00:26:21;4.80;;;2.80;;
15482;SDS011;7843;50.330;7.312;2022-09-24T00:29:07;4.32;;;2.97;;
15482;SDS011;7843;50.330;7.312;2022-09-24T00:31:35;7.13;;;3.35;;
15482;SDS011;7843;50.330;7.312;2022-09-24T00:34:02;5.95;;;3.05;;
15482;SDS011;7843;50.330;7.312;2022-09-24T00:36:29;6.03;;;3.20;;
15482;SDS011;7843;50.330;7.312;2022-09-24T00:38:57;4.80;;;2.60;;
15482;SDS011;7843;50.330;7.312;2022-09-24T00:41:26;3.35;;;2.42;;
15482;SDS011;7843;50.330;7.312;2022-09-24T00:43:55;4.38;;;2.85;;
15482;SDS011;7843;50.330;7.312;2022-09-24T00:48:58;5.10;;;2.43;;
15482;SDS011;7843;50.330;7.312;2022-09-24T00:51:28;2.90;;;2.20;;
15482;SDS011;7843;50.330;7.312;2022-09-24T00:53:58;3.13;;;1.98;;
15482;SDS011;7843;50.330;7.312;2022-09-24T00:56:29;4.20;;;2.38;;
15482;SDS011;7843;50.330;7.312;2022-09-24T00:58:59;4.57;;;2.03;;
15482;SDS011;7843;50.330;7.312;2022-09-24T01:01:30;3.35;;;2.30;;
15482;SDS011;7843;50.330;7.312;2022-09-24T01:03:58;4.20;;;2.38;;
15482;SDS011;7843;50.330;7.312;2022-09-24T01:06:26;3.97;;;2.53;;
15482;SDS011;7843;50.330;7.312;2022-09-24T01:08:53;2.63;;;2.35;;
15482;SDS011;7843;50.330;7.312;2022-09-24T01:22:33;3.92;;;2.60;;
15482;SDS011;7843;50.330;7.312;2022-09-24T01:30:40;4.82;;;2.67;;
15482;SDS011;7843;50.330;7.312;2022-09-24T01:33:08;5.13;;;2.25;;
15482;SDS011;7843;50.330;7.312;2022-09-24T01:35:45;3.33;;;2.30;;
15482;SDS011;7843;50.330;7.312;2022-09-24T01:38:20;4.82;;;2.25;;
15482;SDS011;7843;50.330;7.312;2022-09-24T01:40:49;3.50;;;2.08;;
15482;SDS011;7843;50.330;7.312;2022-09-24T01:43:20;3.45;;;2.30;;
15482;SDS011;7843;50.330;7.312;2022-09-24T01:45:50;4.57;;;2.17;;
15482;SDS011;7843;50.330;7.312;2022-09-24T01:48:17;3.47;;;2.70;;
15482;SDS011;7843;50.330;7.312;2022-09-24T01:53:26;5.50;;;2.33;;
15482;SDS011;7843;50.330;7.312;2022-09-24T01:55:58;4.10;;;2.20;;
15482;SDS011;7843;50.330;7.312;2022-09-24T01:58:39;3.70;;;2.40;;
15482;SDS011;7843;50.330;7.312;2022-09-24T02:01:37;4.00;;;2.50;;
15482;SDS011;7843;50.330;7.312;2022-09-24T02:04:11;3.65;;;3.03;;
15482;SDS011;7843;50.330;7.312;2022-09-24T02:07:06;3.42;;;2.40;;
15482;SDS011;7843;50.330;7.312;2022-09-24T02:09:44;5.60;;;2.30;;
15482;SDS011;7843;50.330;7.312;2022-09-24T02:12:54;4.20;;;2.47;;
15482;SDS011;7843;50.330;7.312;2022-09-24T02:15:15;3.80;;;2.60;;
15482;SDS011;7843;50.330;7.312;2022-09-24T02:17:47;4.55;;;2.50;;
15482;SDS011;7843;50.330;7.312;2022-09-24T02:20:20;4.20;;;2.38;;
15482;SDS011;7843;50.330;7.312;2022-09-24T02:22:49;4.30;;;2.70;;
15482;SDS011;7843;50.330;7.312;2022-09-24T02:25:20;5.63;;;2.88;;
15482;SDS011;7843;50.330;7.312;2022-09-24T02:27:53;5.03;;;2.80;;
15482;SDS011;7843;50.330;7.312;2022-09-24T02:30:21;3.92;;;2.72;;
15482;SDS011;7843;50.330;7.312;2022-09-24T02:32:48;9.63;;;5.80;;
15482;SDS011;7843;50.330;7.312;2022-09-24T02:35:15;6.17;;;3.50;;
15482;SDS011;7843;50.330;7.312;2022-09-24T02:37:43;5.80;;;2.85;;
15482;SDS011;7843;50.330;7.312;2022-09-24T02:40:12;3.92;;;2.67;;
15482;SDS011;7843;50.330;7.312;2022-09-24T02:42:40;3.97;;;2.58;;
15482;SDS011;7843;50.330;7.312;2022-09-24T02:45:09;4.00;;;2.58;;
15482;SDS011;7843;50.330;7.312;2022-09-24T02:47:36;4.20;;;3.00;;
15482;SDS011;7843;50.330;7.312;2022-09-24T02:50:03;5.70;;;2.85;;
15482;SDS011;7843;50.330;7.312;2022-09-24T02:52:30;5.45;;;2.80;;
15482;SDS011;7843;50.330;7.312;2022-09-24T02:54:57;6.75;;;2.83;;
15482;SDS011;7843;50.330;7.312;2022-09-24T02:57:24;5.65;;;2.78;;
15482;SDS011;7843;50.330;7.312;2022-09-24T02:59:50;5.30;;;2.40;;
15482;SDS011;7843;50.330;7.312;2022-09-24T03:02:17;4.53;;;2.63;;
15482;SDS011;7843;50.330;7.312;2022-09-24T03:04:44;4.20;;;2.38;;
15482;SDS011;7843;50.330;7.312;2022-09-24T03:07:12;3.72;;;2.55;;
15482;SDS011;7843;50.330;7.312;2022-09-24T03:09:39;5.47;;;2.60;;
15482;SDS011;7843;50.330;7.312;2022-09-24T03:12:06;3.27;;;2.37;;
15482;SDS011;7843;50.330;7.312;2022-09-24T03:14:33;10.30;;;3.03;;
15482;SDS011;7843;50.330;7.312;2022-09-24T03:17:00;4.75;;;2.70;;
15482;SDS011;7843;50.330;7.312;2022-09-24T03:19:26;3.55;;;2.53;;
15482;SDS011;7843;50.330;7.312;2022-09-24T03:21:53;4.68;;;2.45;;
15482;SDS011;7843;50.330;7.312;2022-09-24T03:24:20;3.35;;;2.10;;
15482;SDS011;7843;50.330;7.312;2022-09-24T03:26:46;4.13;;;2.53;;
15482;SDS011;7843;50.330;7.312;2022-09-24T03:29:13;4.00;;;2.50;;
15482;SDS011;7843;50.330;7.312;2022-09-24T03:31:40;3.45;;;2.70;;
15482;SDS011;7843;50.330;7.312;2022-09-24T03:34:06;4.00;;;2.45;;
15482;SDS011;7843;50.330;7.312;2022-09-24T03:36:33;3.50;;;2.45;;
15482;SDS011;7843;50.330;7.312;2022-09-24T03:39:00;3.55;;;2.35;;
15482;SDS011;7843;50.330;7.312;2022-09-24T03:41:26;3.63;;;2.40;;
15482;SDS011;7843;50.330;7.312;2022-09-24T03:43:53;3.47;;;2.60;;
15482;SDS011;7843;50.330;7.312;2022-09-24T03:46:21;3.88;;;2.70;;
15482;SDS011;7843;50.330;7.312;2022-09-24T03:48:49;3.65;;;2.70;;
15482;SDS011;7843;50.330;7.312;2022-09-24T03:51:16;3.43;;;2.60;;
15482;SDS011;7843;50.330;7.312;2022-09-24T03:53:45;4.53;;;2.67;;
15482;SDS011;7843;50.330;7.312;2022-09-24T03:56:13;4.88;;;2.63;;
15482;SDS011;7843;50.330;7.312;2022-09-24T03:58:41;3.53;;;2.53;;
15482;SDS011;7843;50.330;7.312;2022-09-24T04:01:12;4.57;;;2.35;;
15482;SDS011;7843;50.330;7.312;2022-09-24T04:03:42;3.87;;;2.70;;
15482;SDS011;7843;50.330;7.312;2022-09-24T04:06:09;4.67;;;2.90;;
15482;SDS011;7843;50.330;7.312;2022-09-24T04:08:35;3.47;;;2.42;;
15482;SDS011;7843;50.330;7.312;2022-09-24T04:11:02;4.75;;;2.50;;
15482;SDS011;7843;50.330;7.312;2022-09-24T04:13:29;4.60;;;2.50;;
15482;SDS011;7843;50.330;7.312;2022-09-24T04:16:00;5.13;;;2.95;;
15482;SDS011;7843;50.330;7.312;2022-09-24T04:18:27;5.47;;;2.78;;
15482;SDS011;7843;50.330;7.312;2022-09-24T04:20:58;5.30;;;2.53;;
15482;SDS011;7843;50.330;7.312;2022-09-24T04:23:25;4.95;;;2.45;;
15482;SDS011;7843;50.330;7.312;2022-09-24T04:25:52;2.53;;;1.93;;
15482;SDS011;7843;50.330;7.312;2022-09-24T04:28:19;3.92;;;2.70;;
15482;SDS011;7843;50.330;7.312;2022-09-24T04:30:46;4.00;;;2.55;;
15482;SDS011;7843;50.330;7.312;2022-09-24T04:33:12;4.80;;;2.60;;
15482;SDS011;7843;50.330;7.312;2022-09-24T04:35:39;6.32;;;2.90;;
15482;SDS011;7843;50.330;7.312;2022-09-24T04:38:06;5.63;;;2.80;;
15482;SDS011;7843;50.330;7.312;2022-09-24T04:40:32;5.37;;;3.23;;
15482;SDS011;7843;50.330;7.312;2022-09-24T04:42:59;6.80;;;2.60;;
15482;SDS011;7843;50.330;7.312;2022-09-24T04:45:27;3.55;;;2.75;;
15482;SDS011;7843;50.330;7.312;2022-09-24T04:47:54;5.43;;;2.80;;
15482;SDS011;7843;50.330;7.312;2022-09-24T04:50:25;8.65;;;2.90;;
15482;SDS011;7843;50.330;7.312;2022-09-24T04:52:54;4.28;;;2.83;;
15482;SDS011;7843;50.330;7.312;2022-09-24T04:55:21;4.40;;;2.40;;
15482;SDS011;7843;50.330;7.312;2022-09-24T04:57:48;3.47;;;2.53;;
15482;SDS011;7843;50.330;7.312;2022-09-24T05:00:16;4.05;;;2.60;;
15482;SDS011;7843;50.330;7.312;2022-09-24T05:02:44;4.13;;;3.00;;
15482;SDS011;7843;50.330;7.312;2022-09-24T05:05:12;5.18;;;2.53;;
15482;SDS011;7843;50.330;7.312;2022-09-24T05:07:39;4.97;;;2.57;;
15482;SDS011;7843;50.330;7.312;2022-09-24T05:10:07;3.47;;;2.40;;
15482;SDS011;7843;50.330;7.312;2022-09-24T05:12:34;5.35;;;2.40;;
15482;SDS011;7843;50.330;7.312;2022-09-24T05:15:01;5.68;;;2.70;;
15482;SDS011;7843;50.330;7.312;2022-09-24T05:17:28;4.47;;;2.53;;
15482;SDS011;7843;50.330;7.312;2022-09-24T05:19:55;4.63;;;2.78;;
15482;SDS011;7843;50.330;7.312;2022-09-24T05:22:23;4.50;;;2.53;;
15482;SDS011;7843;50.330;7.312;2022-09-24T05:24:51;5.07;;;2.63;;
15482;SDS011;7843;50.330;7.312;2022-09-24T05:27:18;7.05;;;2.53;;
15482;SDS011;7843;50.330;7.312;2022-09-24T05:29:44;3.47;;;2.35;;
15482;SDS011;7843;50.330;7.312;2022-09-24T05:32:12;5.57;;;2.80;;
15482;SDS011;7843;50.330;7.312;2022-09-24T05:34:43;4.65;;;2.70;;
15482;SDS011;7843;50.330;7.312;2022-09-24T05:37:11;3.28;;;2.50;;
15482;SDS011;7843;50.330;7.312;2022-09-24T05:39:39;3.80;;;2.72;;
15482;SDS011;7843;50.330;7.312;2022-09-24T05:42:09;4.38;;;2.67;;
15482;SDS011;7843;50.330;7.312;2022-09-24T05:44:39;4.60;;;2.83;;
15482;SDS011;7843;50.330;7.312;2022-09-24T05:47:07;4.27;;;3.00;;
15482;SDS011;7843;50.330;7.312;2022-09-24T05:49:34;5.35;;;3.00;;
15482;SDS011;7843;50.330;7.312;2022-09-24T05:52:01;4.50;;;2.53;;
15482;SDS011;7843;50.330;7.312;2022-09-24T05:54:28;4.95;;;3.03;;
15482;SDS011;7843;50.330;7.312;2022-09-24T05:56:55;4.38;;;3.13;;
15482;SDS011;7843;50.330;7.312;2022-09-24T05:59:21;5.63;;;3.23;;
15482;SDS011;7843;50.330;7.312;2022-09-24T06:01:49;5.10;;;3.15;;
15482;SDS011;7843;50.330;7.312;2022-09-24T06:04:16;4.47;;;3.03;;
15482;SDS011;7843;50.330;7.312;2022-09-24T06:06:42;5.70;;;3.25;;
15482;SDS011;7843;50.330;7.312;2022-09-24T06:09:09;5.95;;;3.20;;
15482;SDS011;7843;50.330;7.312;2022-09-24T06:11:36;5.43;;;3.30;;
15482;SDS011;7843;50.330;7.312;2022-09-24T06:14:05;5.10;;;3.17;;
15482;SDS011;7843;50.330;7.312;2022-09-24T06:16:33;4.38;;;3.05;;
15482;SDS011;7843;50.330;7.312;2022-09-24T06:19:00;5.30;;;3.10;;
15482;SDS011;7843;50.330;7.312;2022-09-24T06:21:27;5.13;;;3.13;;
15482;SDS011;7843;50.330;7.312;2022-09-24T06:23:53;8.20;;;3.50;;
15482;SDS011;7843;50.330;7.312;2022-09-24T06:26:20;5.65;;;3.72;;
15482;SDS011;7843;50.330;7.312;2022-09-24T06:28:47;5.60;;;3.80;;
15482;SDS011;7843;50.330;7.312;2022-09-24T06:31:16;7.07;;;2.90;;
15482;SDS011;7843;50.330;7.312;2022-09-24T06:33:43;6.35;;;3.30;;
15482;SDS011;7843;50.330;7.312;2022-09-24T06:36:10;4.40;;;2.95;;
15482;SDS011;7843;50.330;7.312;2022-09-24T06:38:36;6.55;;;3.40;;
15482;SDS011;7843;50.330;7.312;2022-09-24T06:41:05;5.23;;;3.30;;
15482;SDS011;7843;50.330;7.312;2022-09-24T06:43:32;8.07;;;4.60;;
15482;SDS011;7843;50.330;7.312;2022-09-24T06:45:59;6.53;;;3.50;;
15482;SDS011;7843;50.330;7.312;2022-09-24T06:48:26;4.20;;;2.80;;
15482;SDS011;7843;50.330;7.312;2022-09-24T06:50:53;3.72;;;2.67;;
15482;SDS011;7843;50.330;7.312;2022-09-24T06:53:21;5.15;;;2.72;;
15482;SDS011;7843;50.330;7.312;2022-09-24T06:55:48;9.20;;;5.93;;
15482;SDS011;7843;50.330;7.312;2022-09-24T06:58:16;25.73;;;13.57;;
15482;SDS011;7843;50.330;7.312;2022-09-24T07:00:54;8.25;;;5.40;;
15482;SDS011;7843;50.330;7.312;2022-09-24T07:03:30;3.20;;;2.58;;
15482;SDS011;7843;50.330;7.312;2022-09-24T07:06:02;4.80;;;2.60;;
15482;SDS011;7843;50.330;7.312;2022-09-24T07:08:30;7.90;;;4.35;;
15482;SDS011;7843;50.330;7.312;2022-09-24T07:10:57;5.50;;;3.70;;
15482;SDS011;7843;50.330;7.312;2022-09-24T07:13:25;12.77;;;6.85;;
15482;SDS011;7843;50.330;7.312;2022-09-24T07:15:52;6.25;;;3.88;;
15482;SDS011;7843;50.330;7.312;2022-09-24T07:18:19;5.90;;;3.20;;
15482;SDS011;7843;50.330;7.312;2022-09-24T07:20:55;4.22;;;2.53;;
15482;SDS011;7843;50.330;7.312;2022-09-24T07:23:22;4.80;;;2.67;;
15482;SDS011;7843;50.330;7.312;2022-09-24T07:25:49;3.67;;;2.40;;
15482;SDS011;7843;50.330;7.312;2022-09-24T07:28:20;8.02;;;5.05;;
15482;SDS011;7843;50.330;7.312;2022-09-24T07:30:46;9.40;;;7.33;;
15482;SDS011;7843;50.330;7.312;2022-09-24T07:33:21;6.38;;;4.68;;
15482;SDS011;7843;50.330;7.312;2022-09-24T07:35:48;6.85;;;4.32;;
15482;SDS011;7843;50.330;7.312;2022-09-24T07:38:16;5.28;;;3.70;;
15482;SDS011;7843;50.330;7.312;2022-09-24T07:40:43;5.57;;;3.47;;
15482;SDS011;7843;50.330;7.312;2022-09-24T07:43:10;6.03;;;3.10;;
15482;SDS011;7843;50.330;7.312;2022-09-24T07:45:39;3.90;;;3.00;;
15482;SDS011;7843;50.330;7.312;2022-09-24T07:48:06;5.40;;;3.10;;
15482;SDS011;7843;50.330;7.312;2022-09-24T07:50:37;6.03;;;3.20;;
15482;SDS011;7843;50.330;7.312;2022-09-24T07:53:05;3.83;;;2.95;;
15482;SDS011;7843;50.330;7.312;2022-09-24T07:55:32;4.70;;;2.90;;
15482;SDS011;7843;50.330;7.312;2022-09-24T07:58:04;5.07;;;3.40;;
15482;SDS011;7843;50.330;7.312;2022-09-24T08:00:32;5.20;;;3.22;;
15482;SDS011;7843;50.330;7.312;2022-09-24T08:03:00;6.88;;;3.47;;
15482;SDS011;7843;50.330;7.312;2022-09-24T08:05:27;6.75;;;3.58;;
15482;SDS011;7843;50.330;7.312;2022-09-24T08:07:54;5.43;;;3.53;;
15482;SDS011;7843;50.330;7.312;2022-09-24T08:10:23;4.50;;;3.17;;
15482;SDS011;7843;50.330;7.312;2022-09-24T08:12:51;9.27;;;4.38;;
15482;SDS011;7843;50.330;7.312;2022-09-24T08:15:19;7.25;;;3.47;;
15482;SDS011;7843;50.330;7.312;2022-09-24T08:17:47;6.32;;;3.45;;
15482;SDS011;7843;50.330;7.312;2022-09-24T08:20:14;5.57;;;3.10;;
15482;SDS011;7843;50.330;7.312;2022-09-24T08:22:41;6.60;;;3.08;;
15482;SDS011;7843;50.330;7.312;2022-09-24T08:25:08;6.38;;;3.00;;
15482;SDS011;7843;50.330;7.312;2022-09-24T08:27:34;5.50;;;3.00;;
15482;SDS011;7843;50.330;7.312;2022-09-24T08:30:03;5.70;;;2.95;;
15482;SDS011;7843;50.330;7.312;2022-09-24T08:32:31;4.93;;;2.92;;
15482;SDS011;7843;50.330;7.312;2022-09-24T08:34:57;5.88;;;3.28;;
15482;SDS011;7843;50.330;7.312;2022-09-24T08:37:26;4.88;;;3.10;;
15482;SDS011;7843;50.330;7.312;2022-09-24T08:39:53;8.52;;;3.47;;
15482;SDS011;7843;50.330;7.312;2022-09-24T08:44:55;5.18;;;3.35;;
15482;SDS011;7843;50.330;7.312;2022-09-24T08:47:52;5.63;;;3.38;;
15482;SDS011;7843;50.330;7.312;2022-09-24T08:50:32;3.37;;;2.87;;
15482;SDS011;7843;50.330;7.312;2022-09-24T08:53:11;5.25;;;3.05;;
15482;SDS011;7843;50.330;7.312;2022-09-24T08:55:45;4.38;;;2.90;;
15482;SDS011;7843;50.330;7.312;2022-09-24T09:06:45;4.25;;;2.65;;
15482;SDS011;7843;50.330;7.312;2022-09-24T09:12:04;4.78;;;2.92;;
15482;SDS011;7843;50.330;7.312;2022-09-24T09:14:50;5.60;;;2.67;;
15482;SDS011;7843;50.330;7.312;2022-09-24T09:17:31;3.95;;;2.97;;
15482;SDS011;7843;50.330;7.312;2022-09-24T09:20:00;4.00;;;2.95;;
15482;SDS011;7843;50.330;7.312;2022-09-24T09:22:36;5.63;;;2.88;;
15482;SDS011;7843;50.330;7.312;2022-09-24T09:25:16;4.55;;;2.85;;
15482;SDS011;7843;50.330;7.312;2022-09-24T09:27:47;5.07;;;3.30;;
15482;SDS011;7843;50.330;7.312;2022-09-24T09:30:17;5.65;;;3.72;;
15482;SDS011;7843;50.330;7.312;2022-09-24T09:32:53;4.38;;;3.05;;
15482;SDS011;7843;50.330;7.312;2022-09-24T09:41:21;4.68;;;3.08;;
15482;SDS011;7843;50.330;7.312;2022-09-24T09:44:17;5.90;;;3.15;;
15482;SDS011;7843;50.330;7.312;2022-09-24T09:46:53;5.87;;;3.57;;
15482;SDS011;7843;50.330;7.312;2022-09-24T09:49:31;7.18;;;4.68;;
15482;SDS011;7843;50.330;7.312;2022-09-24T09:52:04;5.72;;;3.53;;
15482;SDS011;7843;50.330;7.312;2022-09-24T09:54:40;6.93;;;4.45;;
15482;SDS011;7843;50.330;7.312;2022-09-24T09:57:18;9.27;;;5.10;;
15482;SDS011;7843;50.330;7.312;2022-09-24T09:59:48;4.60;;;3.13;;
15482;SDS011;7843;50.330;7.312;2022-09-24T10:02:26;4.97;;;3.70;;
15482;SDS011;7843;50.330;7.312;2022-09-24T10:04:56;5.10;;;4.07;;
15482;SDS011;7843;50.330;7.312;2022-09-24T10:07:24;4.75;;;3.72;;
15482;SDS011;7843;50.330;7.312;2022-09-24T10:09:59;5.28;;;3.65;;
15482;SDS011;7843;50.330;7.312;2022-09-24T10:12:41;4.55;;;3.35;;
15482;SDS011;7843;50.330;7.312;2022-09-24T10:17:42;5.32;;;3.85;;
15482;SDS011;7843;50.330;7.312;2022-09-24T10:20:16;6.17;;;4.63;;
15482;SDS011;7843;50.330;7.312;2022-09-24T10:22:48;5.33;;;3.83;;
15482;SDS011;7843;50.330;7.312;2022-09-24T10:25:18;6.15;;;3.83;;
15482;SDS011;7843;50.330;7.312;2022-09-24T10:27:52;7.70;;;4.43;;
15482;SDS011;7843;50.330;7.312;2022-09-24T10:30:47;8.35;;;4.35;;
15482;SDS011;7843;50.330;7.312;2022-09-24T10:33:19;6.40;;;3.80;;
15482;SDS011;7843;50.330;7.312;2022-09-24T10:35:46;6.22;;;3.70;;
15482;SDS011;7843;50.330;7.312;2022-09-24T10:38:19;5.63;;;3.63;;
15482;SDS011;7843;50.330;7.312;2022-09-24T10:40:50;6.53;;;3.50;;
15482;SDS011;7843;50.330;7.312;2022-09-24T10:43:20;7.18;;;4.20;;
15482;SDS011;7843;50.330;7.312;2022-09-24T10:51:30;4.47;;;3.50;;
15482;SDS011;7843;50.330;7.312;2022-09-24T10:56:48;4.93;;;3.42;;
15482;SDS011;7843;50.330;7.312;2022-09-24T11:22:12;5.65;;;3.95;;
15482;SDS011;7843;50.330;7.312;2022-09-24T11:30:34;5.95;;;3.53;;
15482;SDS011;7843;50.330;7.312;2022-09-24T11:50:41;3.92;;;3.53;;
15482;SDS011;7843;50.330;7.312;2022-09-24T11:53:30;7.03;;;4.40;;
15482;SDS011;7843;50.330;7.312;2022-09-24T11:56:23;9.43;;;5.20;;
15482;SDS011;7843;50.330;7.312;2022-09-24T12:01:38;6.90;;;4.60;;
15482;SDS011;7843;50.330;7.312;2022-09-24T12:04:20;5.35;;;3.90;;
15482;SDS011;7843;50.330;7.312;2022-09-24T12:07:26;6.65;;;3.63;;
15482;SDS011;7843;50.330;7.312;2022-09-24T12:13:09;10.68;;;3.97;;
15482;SDS011;7843;50.330;7.312;2022-09-24T12:15:59;6.33;;;3.93;;
15482;SDS011;7843;50.330;7.312;2022-09-24T12:18:41;7.35;;;3.35;;
15482;SDS011;7843;50.330;7.312;2022-09-24T12:21:37;4.75;;;3.35;;
15482;SDS011;7843;50.330;7.312;2022-09-24T12:24:10;5.25;;;3.42;;
15482;SDS011;7843;50.330;7.312;2022-09-24T12:26:51;9.02;;;3.22;;
15482;SDS011;7843;50.330;7.312;2022-09-24T12:29:34;4.00;;;3.10;;
15482;SDS011;7843;50.330;7.312;2022-09-24T12:32:43;4.47;;;3.00;;
15482;SDS011;7843;50.330;7.312;2022-09-24T12:38:13;4.70;;;3.30;;
15482;SDS011;7843;50.330;7.312;2022-09-24T12:43:20;7.50;;;3.00;;
15482;SDS011;7843;50.330;7.312;2022-09-24T12:45:53;4.45;;;2.90;;
15482;SDS011;7843;50.330;7.312;2022-09-24T12:48:24;4.95;;;2.78;;
15482;SDS011;7843;50.330;7.312;2022-09-24T12:50:55;5.75;;;2.88;;
15482;SDS011;7843;50.330;7.312;2022-09-24T12:53:33;6.75;;;3.05;;
15482;SDS011;7843;50.330;7.312;2022-09-24T12:56:03;8.40;;;3.13;;
15482;SDS011;7843;50.330;7.312;2022-09-24T12:58:38;4.07;;;2.75;;
15482;SDS011;7843;50.330;7.312;2022-09-24T13:04:00;5.17;;;2.67;;
15482;SDS011;7843;50.330;7.312;2022-09-24T13:06:33;3.45;;;2.40;;
15482;SDS011;7843;50.330;7.312;2022-09-24T13:09:21;3.78;;;2.72;;
15482;SDS011;7843;50.330;7.312;2022-09-24T13:12:00;3.97;;;2.58;;
15482;SDS011;7843;50.330;7.312;2022-09-24T13:14:30;8.15;;;5.70;;
15482;SDS011;7843;50.330;7.312;2022-09-24T13:17:02;8.00;;;6.45;;
15482;SDS011;7843;50.330;7.312;2022-09-24T13:19:36;10.02;;;7.25;;
15482;SDS011;7843;50.330;7.312;2022-09-24T13:22:15;8.57;;;7.67;;
15482;SDS011;7843;50.330;7.312;2022-09-24T13:27:36;5.95;;;3.65;;
15482;SDS011;7843;50.330;7.312;2022-09-24T13:35:25;5.97;;;3.25;;
15482;SDS011;7843;50.330;7.312;2022-09-24T13:38:17;5.82;;;3.42;;
15482;SDS011;7843;50.330;7.312;2022-09-24T13:40:52;4.65;;;3.28;;
15482;SDS011;7843;50.330;7.312;2022-09-24T13:43:29;4.73;;;3.47;;
15482;SDS011;7843;50.330;7.312;2022-09-24T13:45:58;5.57;;;3.40;;
15482;SDS011;7843;50.330;7.312;2022-09-24T13:51:04;6.45;;;3.00;;
15482;SDS011;7843;50.330;7.312;2022-09-24T13:53:37;5.80;;;3.23;;
15482;SDS011;7843;50.330;7.312;2022-09-24T13:56:12;3.60;;;2.80;;
15482;SDS011;7843;50.330;7.312;2022-09-24T13:58:40;4.75;;;3.00;;
15482;SDS011;7843;50.330;7.312;2022-09-24T14:01:19;5.60;;;2.67;;
15482;SDS011;7843;50.330;7.312;2022-09-24T14:03:56;5.75;;;2.90;;
15482;SDS011;7843;50.330;7.312;2022-09-24T14:06:39;4.83;;;2.70;;
15482;SDS011;7843;50.330;7.312;2022-09-24T14:11:57;4.78;;;2.70;;
15482;SDS011;7843;50.330;7.312;2022-09-24T14:14:27;6.85;;;3.03;;
15482;SDS011;7843;50.330;7.312;2022-09-24T14:17:05;6.57;;;3.00;;
15482;SDS011;7843;50.330;7.312;2022-09-24T14:19:33;5.03;;;2.97;;
15482;SDS011;7843;50.330;7.312;2022-09-24T14:22:03;8.57;;;3.30;;
15482;SDS011;7843;50.330;7.312;2022-09-24T14:24:32;5.85;;;3.30;;
15482;SDS011;7843;50.330;7.312;2022-09-24T14:27:13;4.67;;;3.00;;
15482;SDS011;7843;50.330;7.312;2022-09-24T14:30:01;5.95;;;3.60;;
15482;SDS011;7843;50.330;7.312;2022-09-24T14:32:33;6.13;;;3.50;;
15482;SDS011;7843;50.330;7.312;2022-09-24T14:35:04;6.63;;;4.10;;
15482;SDS011;7843;50.330;7.312;2022-09-24T14:37:34;9.73;;;3.73;;
15482;SDS011;7843;50.330;7.312;2022-09-24T14:40:14;6.50;;;3.60;;
15482;SDS011;7843;50.330;7.312;2022-09-24T14:42:52;6.68;;;3.72;;
15482;SDS011;7843;50.330;7.312;2022-09-24T14:45:31;5.07;;;3.22;;
15482;SDS011;7843;50.330;7.312;2022-09-24T14:48:16;5.13;;;3.53;;
15482;SDS011;7843;50.330;7.312;2022-09-24T14:50:57;4.10;;;3.40;;
15482;SDS011;7843;50.330;7.312;2022-09-24T14:53:30;7.57;;;4.00;;
15482;SDS011;7843;50.330;7.312;2022-09-24T14:58:55;6.32;;;3.70;;
15482;SDS011;7843;50.330;7.312;2022-09-24T15:01:24;6.63;;;4.00;;
15482;SDS011;7843;50.330;7.312;2022-09-24T15:03:59;5.15;;;3.70;;
15482;SDS011;7843;50.330;7.312;2022-09-24T15:06:32;5.93;;;3.70;;
15482;SDS011;7843;50.330;7.312;2022-09-24T15:09:05;7.63;;;3.93;;
15482;SDS011;7843;50.330;7.312;2022-09-24T15:11:44;7.32;;;4.30;;
15482;SDS011;7843;50.330;7.312;2022-09-24T15:14:12;6.63;;;3.83;;
15482;SDS011;7843;50.330;7.312;2022-09-24T15:16:50;7.82;;;3.80;;
15482;SDS011;7843;50.330;7.312;2022-09-24T15:19:22;5.05;;;3.65;;
15482;SDS011;7843;50.330;7.312;2022-09-24T15:21:53;5.90;;;3.75;;
15482;SDS011;7843;50.330;7.312;2022-09-24T15:24:21;6.20;;;3.85;;
15482;SDS011;7843;50.330;7.312;2022-09-24T15:27:03;5.07;;;3.33;;
15482;SDS011;7843;50.330;7.312;2022-09-24T15:29:31;5.80;;;3.70;;
15482;SDS011;7843;50.330;7.312;2022-09-24T15:31:58;5.15;;;3.53;;
15482;SDS011;7843;50.330;7.312;2022-09-24T15:34:26;5.97;;;3.75;;
15482;SDS011;7843;50.330;7.312;2022-09-24T15:36:54;6.55;;;3.40;;
15482;SDS011;7843;50.330;7.312;2022-09-24T15:39:25;6.28;;;3.92;;
15482;SDS011;7843;50.330;7.312;2022-09-24T15:41:52;7.93;;;4.13;;
15482;SDS011;7843;50.330;7.312;2022-09-24T15:44:23;5.70;;;3.67;;
15482;SDS011;7843;50.330;7.312;2022-09-24T15:46:53;5.60;;;4.07;;
15482;SDS011;7843;50.330;7.312;2022-09-24T15:49:20;6.47;;;4.10;;
15482;SDS011;7843;50.330;7.312;2022-09-24T15:51:52;5.83;;;4.07;;
15482;SDS011;7843;50.330;7.312;2022-09-24T15:54:24;6.93;;;4.43;;
15482;SDS011;7843;50.330;7.312;2022-09-24T15:56:51;5.75;;;4.30;;
15482;SDS011;7843;50.330;7.312;2022-09-24T15:59:19;5.97;;;4.60;;
15482;SDS011;7843;50.330;7.312;2022-09-24T16:01:47;11.48;;;4.70;;
15482;SDS011;7843;50.330;7.312;2022-09-24T16:04:15;7.35;;;4.57;;
15482;SDS011;7843;50.330;7.312;2022-09-24T16:06:42;7.40;;;4.50;;
15482;SDS011;7843;50.330;7.312;2022-09-24T16:09:09;6.10;;;4.40;;
15482;SDS011;7843;50.330;7.312;2022-09-24T16:11:35;7.82;;;4.18;;
15482;SDS011;7843;50.330;7.312;2022-09-24T16:14:02;9.27;;;4.80;;
15482;SDS011;7843;50.330;7.312;2022-09-24T16:16:29;6.50;;;4.30;;
15482;SDS011;7843;50.330;7.312;2022-09-24T16:18:55;8.80;;;4.28;;
15482;SDS011;7843;50.330;7.312;2022-09-24T16:21:22;8.45;;;5.00;;
15482;SDS011;7843;50.330;7.312;2022-09-24T16:23:52;7.20;;;4.63;;
15482;SDS011;7843;50.330;7.312;2022-09-24T16:26:20;8.57;;;5.05;;
15482;SDS011;7843;50.330;7.312;2022-09-24T16:28:47;6.68;;;5.10;;
15482;SDS011;7843;50.330;7.312;2022-09-24T16:31:17;6.50;;;5.10;;
15482;SDS011;7843;50.330;7.312;2022-09-24T16:33:44;6.28;;;4.95;;
15482;SDS011;7843;50.330;7.312;2022-09-24T16:36:11;7.68;;;5.28;;
15482;SDS011;7843;50.330;7.312;2022-09-24T16:38:38;6.43;;;4.80;;
15482;SDS011;7843;50.330;7.312;2022-09-24T16:41:05;6.75;;;4.93;;
15482;SDS011;7843;50.330;7.312;2022-09-24T16:43:32;8.43;;;5.20;;
15482;SDS011;7843;50.330;7.312;2022-09-24T16:46:00;7.72;;;5.10;;
15482;SDS011;7843;50.330;7.312;2022-09-24T16:48:29;7.28;;;5.43;;
15482;SDS011;7843;50.330;7.312;2022-09-24T16:51:03;8.00;;;6.30;;
15482;SDS011;7843;50.330;7.312;2022-09-24T16:53:35;9.48;;;5.95;;
15482;SDS011;7843;50.330;7.312;2022-09-24T16:58:33;8.50;;;5.50;;
15482;SDS011;7843;50.330;7.312;2022-09-24T17:01:04;7.95;;;5.60;;
15482;SDS011;7843;50.330;7.312;2022-09-24T17:03:32;7.05;;;5.70;;
15482;SDS011;7843;50.330;7.312;2022-09-24T17:05:59;8.57;;;5.65;;
15482;SDS011;7843;50.330;7.312;2022-09-24T17:08:26;8.20;;;6.10;;
15482;SDS011;7843;50.330;7.312;2022-09-24T17:11:12;7.15;;;5.18;;
15482;SDS011;7843;50.330;7.312;2022-09-24T17:13:39;6.47;;;5.15;;
15482;SDS011;7843;50.330;7.312;2022-09-24T17:16:06;7.82;;;5.50;;
15482;SDS011;7843;50.330;7.312;2022-09-24T17:18:33;9.48;;;5.65;;
15482;SDS011;7843;50.330;7.312;2022-09-24T17:21:01;7.85;;;5.25;;
15482;SDS011;7843;50.330;7.312;2022-09-24T17:23:29;7.00;;;5.13;;
15482;SDS011;7843;50.330;7.312;2022-09-24T17:26:03;8.65;;;5.72;;
15482;SDS011;7843;50.330;7.312;2022-09-24T17:28:33;8.48;;;5.60;;
15482;SDS011;7843;50.330;7.312;2022-09-24T17:31:00;8.90;;;5.70;;
15482;SDS011;7843;50.330;7.312;2022-09-24T17:33:28;8.82;;;5.50;;
15482;SDS011;7843;50.330;7.312;2022-09-24T17:36:07;9.63;;;5.53;;